Fruitland, NM (87416)

11:35 PM MST on January 20, 2017 (GMT -0700)
Farmington | | Change Station
Active Advisory: Winter Weather Advisory

Elev 5505 ft 36.74 °N, 108.23 °W | Updated 4 minutes ago

Overcast
Overcast
33 °F
Feels Like 24 °F
N
12
Wind Variable Wind from East

Today
High -- | Low -- °F
--% Chance of Precip.
Yesterday
High -- | Low -- °F
Precip. -- in
Pressure 29.49 in
Visibility 9.0 miles
Clouds Few 1400 ft
Scattered Clouds 2100 ft
Overcast 3100 ft
Windchill 24 °F
Dew Point 31 °F
Humidity 92%
Rainfall 0.02 in
Snow Depth Not available.
7:23 AM 5:27 PM
Last Quarter, 37% visible
SPECI KFMN 210631Z AUTO 08010KT 9SM -SN FEW014 SCT021 OVC031 01/M01 A2949 RMK AO2 SNB22 P0000 T00061006
Pressure 29.49 in
Visibility 9.0 miles
Clouds Few 1400 ft
Scattered Clouds 2100 ft
Overcast 3100 ft
Windchill 24 °F
Dew Point 31 °F
Humidity 92%
Rainfall 0.02 in
Snow Depth Not available.
7:23 AM 5:27 PM
Last Quarter, 37% visible
SPECI KFMN 210631Z AUTO 08010KT 9SM -SN FEW014 SCT021 OVC031 01/M01 A2949 RMK AO2 SNB22 P0000 T00061006

Get Your Daily Forecast Email!

Thanks for signing up!

Be on the lookout for a verification email in your inbox.

You'll start receiving the daily forecast at 8 AM.

×

10-Day Weather Forecast

Almanac

Astronomy

Jan. 20, 2017 Rise Set
Actual Time
Civil Twilight
Nautical Twilight
Astronomical Twilight
Moon
Length of Visible Light
Length of Day
Tomorrow will be .
, % of the Moon is Illuminated

Today's Extremes

State Highs State Lows

Community

WunderPhotos

Upload Photos

1,962,540 photos uploaded!

WunderBlog® & News

Nearby

Air Quality

  Air Quality AQ Index Pollutant
Not available.

Snow Depth

Station Depth Elevation

Earthquake Activity

City Distance Mag. Time & Date
Minimum magnitude displayed is 2.5.

Coastal Water Temperatures

Place Temperature

Stations

Nearby Weather Stations

Station Location Temp. Windchill Dew Point Humidity Wind Precip. Elev Updated Type
                   

Watches & Warnings

Winter Weather Advisory
Issued: 8:22 PM MST Jan. 20, 2017 – National Weather Service

... Winter Weather Advisory remains in effect until 8 PM MST
Saturday...

* snow accumulations... 1 to 4 inches with locally greater amounts
of 4 to 8 inches on higher west facing slopes.

* Timing... snow will increase in coverage and intensity
tonight... then persist through Saturday morning... before
tapering off during the afternoon.

* Winds... south and southwest around 10 mph tonight. Strengthening
on Saturday out of the west 20 to 30 mph with gusts to around 40
mph.

* Snow levels... cold enough for snow at all locations.

* Local impacts... roads may become snowpacked and icy.

Precautionary/preparedness actions...

A Winter Weather Advisory for snow and blowing snow means that
visibilities will be restricted due to a combination of falling
and blowing snow.



44